»·PEaware :: N56FR KAVX-KSAN

N56FR :: KAVX-KSAN

FLIGHT INFORMATION

Flight Status: Arrived
Operator: Privately registered:
United States
More flights under this callsign
Pilot: Mark L. (17179)
Aircraft: BEECH AIRCRAFT BARON
(BE58)
More flights by this aircraft type
Origin: KAVX Catalina
United States
Destination: KSAN San Diego Intl-Lindbergh
United States
More flights between these airports :: More routes between these airports
Route: +SXC V208 OCN V23 MZB
File this flight plan on PilotEdge
Remarks: I8 RATING REQUEST
Altitude:
(Current/Filed)
5,000ft
Speed:
(Current/Filed)
140kts
Departed: 02-Aug-18 02:09 PM
Arrived: 02-Aug-18 02:57 PM
Distance/Time
Traveled:
74nm/0:48
Distance/Time
To Go:
Arrived

Flight Plot

Page will automatically refresh every two minutes.


Map Options




Map Legend


Flown Route
Filed Route
Departure Airport
Arrival Airport
Navaid (VOR, NDB)
Fix

Horizontal Profiles

Position Reports

Time Latitude Longitude Heading Altitude Ground
Speed
02-Aug-18 13:48 33.403292 -118.415955 45 1552ft 0kts
02-Aug-18 13:49 33.403292 -118.415955 45 1552ft 0kts
02-Aug-18 13:50 33.403292 -118.415955 45 1552ft 0kts
02-Aug-18 13:51 33.403292 -118.415955 45 1552ft 0kts
02-Aug-18 13:52 33.403292 -118.415955 45 1552ft 0kts
02-Aug-18 13:53 33.403292 -118.415955 45 1552ft 0kts
02-Aug-18 13:54 33.403292 -118.415955 45 1552ft 0kts
02-Aug-18 13:55 33.403292 -118.415955 45 1552ft 0kts
02-Aug-18 13:58 33.403292 -118.415955 45 1552ft 0kts
02-Aug-18 13:59 33.403292 -118.415955 45 1552ft 0kts
02-Aug-18 14:00 33.403292 -118.415955 45 1552ft 0kts
02-Aug-18 14:01 33.403292 -118.415955 45 1552ft 0kts
02-Aug-18 14:02 33.403292 -118.415955 45 1552ft 0kts
02-Aug-18 14:03 33.403292 -118.415955 45 1552ft 0kts
02-Aug-18 14:04 33.403292 -118.415955 45 1552ft 0kts
02-Aug-18 14:05 33.403292 -118.415955 45 1552ft 0kts
02-Aug-18 14:06 33.403292 -118.415955 45 1552ft 0kts
02-Aug-18 14:07 33.403292 -118.415955 45 1552ft 0kts
02-Aug-18 14:08 33.403292 -118.415955 45 1552ft 0kts
02-Aug-18 14:09 33.404892 -118.414978 18 1552ft 16kts
02-Aug-18 14:10 33.406631 -118.413024 234 1552ft 51kts
02-Aug-18 14:11 33.385137 -118.444770 230 2036ft 148kts
02-Aug-18 14:12 33.352242 -118.446546 108 2616ft 178kts
02-Aug-18 14:13 33.343795 -118.390459 106 3339ft 162kts
02-Aug-18 14:14 33.348205 -118.341772 89 4869ft 130kts
02-Aug-18 14:15 33.351597 -118.287665 89 4975ft 178kts
02-Aug-18 14:16 33.349656 -118.226601 99 4994ft 191kts
02-Aug-18 14:17 33.341481 -118.163200 99 4990ft 194kts
02-Aug-18 14:18 33.333159 -118.100183 99 5076ft 192kts
02-Aug-18 14:19 33.325038 -118.039228 99 5070ft 183kts
02-Aug-18 14:20 33.317053 -117.979357 99 5063ft 181kts
02-Aug-18 14:21 33.309091 -117.919875 99 5053ft 181kts
02-Aug-18 14:22 33.301067 -117.860163 99 5029ft 182kts
02-Aug-18 14:23 33.293054 -117.800738 99 5024ft 181kts
02-Aug-18 14:24 33.284899 -117.741252 100 5025ft 181kts
02-Aug-18 14:25 33.275986 -117.682005 100 5017ft 181kts
02-Aug-18 14:26 33.267055 -117.622877 100 5017ft 181kts
02-Aug-18 14:27 33.258479 -117.563688 98 5015ft 181kts
02-Aug-18 14:28 33.251056 -117.504605 104 5009ft 181kts
02-Aug-18 14:29 33.237407 -117.446969 107 5007ft 181kts
02-Aug-18 14:30 33.215381 -117.408913 158 5009ft 175kts
02-Aug-18 14:31 33.170131 -117.388086 162 5006ft 176kts
02-Aug-18 14:32 33.116296 -117.365315 162 5008ft 177kts
02-Aug-18 14:33 33.078444 -117.349408 163 5008ft 177kts
02-Aug-18 14:34 33.032062 -117.329938 163 5006ft 177kts
02-Aug-18 14:35 32.985665 -117.310477 163 5006ft 177kts
02-Aug-18 14:36 32.941039 -117.291741 163 5000ft 156kts
02-Aug-18 14:37 32.902024 -117.275406 163 5002ft 144kts
02-Aug-18 14:38 32.865002 -117.259923 164 5003ft 141kts
02-Aug-18 14:39 32.827477 -117.244261 164 5004ft 145kts
02-Aug-18 14:40 32.812637 -117.200639 100 5004ft 153kts
02-Aug-18 14:41 32.805972 -117.150338 100 4987ft 154kts
02-Aug-18 14:42 32.799376 -117.100152 100 4988ft 154kts
02-Aug-18 14:43 32.792882 -117.049872 100 4987ft 153kts
02-Aug-18 14:44 32.786521 -116.999753 100 4986ft 153kts
02-Aug-18 14:45 32.780284 -116.949824 99 4985ft 152kts
02-Aug-18 14:46 32.773918 -116.900050 100 4984ft 152kts
02-Aug-18 14:47 32.760208 -116.856051 167 4985ft 142kts
02-Aug-18 14:48 32.718655 -116.861150 190 4445ft 159kts
02-Aug-18 14:49 32.675157 -116.868467 190 3994ft 146kts
02-Aug-18 14:50 32.664596 -116.906536 282 3610ft 136kts
02-Aug-18 14:51 32.674704 -116.948543 283 3586ft 126kts
02-Aug-18 14:52 32.684782 -116.989779 284 3466ft 139kts
02-Aug-18 14:53 32.696531 -117.037678 284 2883ft 156kts
02-Aug-18 14:54 32.707777 -117.083749 284 2086ft 132kts
02-Aug-18 14:55 32.716608 -117.119942 283 1329ft 109kts
02-Aug-18 14:56 32.724691 -117.152931 282 669ft 96kts
02-Aug-18 14:57 32.731753 -117.182409 281 13ft 69kts
02-Aug-18 14:58 32.733944 -117.188078 9 16ft 0kts
02-Aug-18 14:59 32.735281 -117.188944 15 16ft 0kts
02-Aug-18 15:00 32.735281 -117.188944 15 16ft 0kts
02-Aug-18 15:01 32.735281 -117.188944 15 16ft 0kts
02-Aug-18 15:02 32.735281 -117.188944 15 16ft 0kts

Navigation Log

Ident Type
Flight plan parsing failed, navigation log unavailable